createdAt,value
2022-08-19T00:00:23.074Z,4.28
2022-08-19T00:02:24.775Z,4.15
2022-08-19T00:04:29.983Z,4.32
2022-08-19T00:06:31.918Z,4.47
2022-08-19T00:08:33.492Z,4.57
2022-08-19T00:10:35.104Z,4.63
2022-08-19T00:12:39.530Z,4.75
2022-08-19T00:14:48.629Z,4.57
2022-08-19T00:16:52.449Z,4.85
2022-08-19T00:18:57.458Z,5.38
2022-08-19T00:21:00.374Z,5.22
2022-08-19T00:23:01.881Z,4.22
2022-08-19T00:25:03.960Z,4.85
2022-08-19T00:27:25.960Z,5.45
2022-08-19T00:29:27.543Z,4.78
2022-08-19T00:31:29.107Z,4.60
2022-08-19T00:33:33.463Z,4.95
2022-08-19T00:35:35.196Z,4.95
2022-08-19T00:37:36.932Z,4.82
2022-08-19T00:39:38.637Z,4.55
2022-08-19T00:41:40.448Z,5.05
2022-08-19T00:43:42.185Z,4.82
2022-08-19T00:45:44.593Z,5.25
2022-08-19T00:47:46.498Z,4.43
2022-08-19T00:49:54.713Z,4.32
2022-08-19T00:52:17.734Z,4.57
2022-08-19T00:54:20.179Z,3.90
2022-08-19T00:56:32.318Z,4.40
2022-08-19T00:58:36.242Z,4.32
2022-08-19T01:00:38.808Z,3.90
2022-08-19T01:02:41.890Z,4.10
2022-08-19T01:04:43.430Z,4.32
2022-08-19T01:06:44.974Z,4.38
2022-08-19T01:08:46.900Z,4.05
2022-08-19T01:10:55.805Z,3.72
2022-08-19T01:13:00.449Z,3.83
2022-08-19T01:15:02.386Z,4.05
2022-08-19T01:17:04.783Z,4.35
2022-08-19T01:19:20.034Z,3.80
2022-08-19T01:21:35.460Z,3.60
2022-08-19T01:23:45.928Z,4.05
2022-08-19T01:25:54.654Z,4.13
2022-08-19T01:27:56.719Z,4.05
2022-08-19T01:30:06.752Z,3.85
2022-08-19T01:32:32.006Z,4.07
2022-08-19T01:34:35.123Z,4.05
2022-08-19T01:36:45.350Z,4.00
2022-08-19T01:38:47.222Z,3.35
2022-08-19T01:40:48.830Z,4.00
2022-08-19T01:42:51.319Z,3.65
2022-08-19T01:44:52.825Z,4.03
2022-08-19T01:46:54.372Z,3.28
2022-08-19T01:48:55.950Z,3.38
2022-08-19T01:50:57.453Z,3.20
2022-08-19T01:53:06.379Z,3.38
2022-08-19T01:55:13.768Z,4.30
2022-08-19T01:57:15.775Z,3.65
2022-08-19T01:59:21.511Z,3.72
2022-08-19T02:01:23.078Z,3.25
2022-08-19T02:03:27.424Z,3.10
2022-08-19T02:05:30.185Z,3.70
2022-08-19T02:07:31.791Z,2.85
2022-08-19T02:09:33.615Z,3.20
2022-08-19T02:11:37.407Z,3.72
2022-08-19T02:13:38.906Z,3.60
2022-08-19T02:15:40.875Z,3.15
2022-08-19T02:17:43.136Z,3.47
2022-08-19T02:19:44.634Z,3.30
2022-08-19T02:21:46.157Z,3.35
2022-08-19T02:23:48.122Z,3.30
2022-08-19T02:25:50.201Z,3.75
2022-08-19T02:27:51.717Z,2.97
2022-08-19T02:29:53.594Z,3.33
2022-08-19T02:31:55.090Z,3.42
2022-08-19T02:33:57.489Z,3.35
2022-08-19T02:35:59.042Z,3.63
2022-08-19T02:38:19.733Z,3.30
2022-08-19T02:40:22.092Z,3.67
2022-08-19T02:42:23.882Z,3.95
2022-08-19T02:44:31.354Z,3.50
2022-08-19T02:46:34.452Z,3.50
2022-08-19T02:48:35.936Z,3.72
2022-08-19T02:50:41.195Z,3.58
2022-08-19T02:52:54.788Z,4.13
2022-08-19T02:54:58.383Z,4.20
2022-08-19T02:56:59.880Z,4.13
2022-08-19T02:59:01.401Z,4.35
2022-08-19T03:01:03.426Z,4.43
2022-08-19T03:03:05.405Z,3.83
2022-08-19T03:05:09.064Z,4.32
2022-08-19T03:07:14.839Z,4.25
2022-08-19T03:09:17.847Z,4.78
2022-08-19T03:11:24.911Z,4.45
2022-08-19T03:13:26.575Z,4.07
2022-08-19T03:15:28.148Z,4.22
2022-08-19T03:17:29.651Z,4.88
2022-08-19T03:19:32.472Z,4.55
2022-08-19T03:21:35.348Z,4.50
2022-08-19T03:23:37.105Z,4.15
2022-08-19T03:25:42.928Z,4.22
2022-08-19T03:27:44.503Z,3.90
2022-08-19T03:29:46.582Z,4.47
2022-08-19T03:31:52.309Z,4.50
2022-08-19T03:33:54.328Z,4.35
2022-08-19T03:36:05.982Z,4.28
2022-08-19T03:38:08.253Z,4.13
2022-08-19T03:40:10.158Z,4.60
2022-08-19T03:42:32.503Z,4.72
2022-08-19T03:44:37.293Z,4.50
2022-08-19T03:46:38.818Z,4.30
2022-08-19T03:48:46.097Z,4.78
2022-08-19T03:50:47.584Z,3.88
2022-08-19T03:52:53.019Z,4.00
2022-08-19T03:54:54.765Z,4.53
2022-08-19T03:56:57.451Z,4.63
2022-08-19T03:59:00.595Z,4.38
2022-08-19T04:01:02.114Z,4.18
2022-08-19T04:03:03.789Z,4.18
2022-08-19T04:05:06.516Z,4.90
2022-08-19T04:07:10.352Z,4.25
2022-08-19T04:09:12.652Z,4.50
2022-08-19T04:11:16.808Z,5.40
2022-08-19T04:13:18.886Z,4.47
2022-08-19T04:15:21.649Z,4.72
2022-08-19T04:17:23.380Z,4.28
2022-08-19T04:19:25.079Z,4.30
2022-08-19T04:21:28.283Z,4.47
2022-08-19T04:23:29.853Z,4.32
2022-08-19T04:25:36.959Z,4.53
2022-08-19T04:27:38.454Z,4.63
2022-08-19T04:29:41.331Z,4.75
2022-08-19T04:31:46.061Z,4.50
2022-08-19T04:33:47.788Z,4.80
2022-08-19T04:35:52.524Z,4.68
2022-08-19T04:37:54.008Z,4.90
2022-08-19T04:40:14.620Z,5.03
2022-08-19T04:42:37.255Z,4.82
2022-08-19T04:44:44.045Z,4.68
2022-08-19T04:46:51.405Z,4.43
2022-08-19T04:48:54.451Z,4.95
2022-08-19T04:51:01.047Z,5.13
2022-08-19T04:53:02.707Z,4.82
2022-08-19T04:55:06.952Z,5.13
2022-08-19T04:57:11.123Z,5.50
2022-08-19T04:59:12.973Z,4.97
2022-08-19T05:01:18.880Z,5.25
2022-08-19T05:03:21.713Z,5.25
2022-08-19T05:05:23.208Z,6.03
2022-08-19T05:07:24.801Z,4.80
2022-08-19T05:09:26.368Z,5.53
2022-08-19T05:11:33.961Z,5.78
2022-08-19T05:13:35.542Z,5.05
2022-08-19T05:15:37.273Z,5.72
2022-08-19T05:17:39.373Z,6.07
2022-08-19T05:19:59.589Z,5.65
2022-08-19T05:22:20.492Z,4.95
2022-08-19T05:24:24.441Z,5.60
2022-08-19T05:26:27.068Z,6.35
2022-08-19T05:28:28.622Z,5.72
2022-08-19T05:30:46.799Z,5.43
2022-08-19T05:32:49.216Z,6.57
2022-08-19T05:34:50.750Z,6.07
2022-08-19T05:36:57.190Z,6.50
2022-08-19T05:38:58.684Z,6.63
2022-08-19T05:41:00.207Z,6.97
2022-08-19T05:43:01.699Z,6.30
2022-08-19T05:45:05.359Z,6.75
2022-08-19T05:47:09.340Z,6.18
2022-08-19T05:49:10.916Z,6.03
2022-08-19T05:51:12.720Z,5.65
2022-08-19T05:53:15.306Z,6.82
2022-08-19T05:55:16.783Z,6.22
2022-08-19T05:57:20.218Z,6.50
2022-08-19T05:59:22.548Z,6.15
2022-08-19T06:01:27.552Z,6.45
2022-08-19T06:03:29.033Z,5.75
2022-08-19T06:05:31.667Z,5.90
2022-08-19T06:07:47.944Z,6.00
2022-08-19T06:10:00.782Z,5.25
2022-08-19T06:12:03.949Z,5.65
2022-08-19T06:14:09.522Z,6.35
2022-08-19T06:16:24.674Z,5.38
2022-08-19T06:18:26.186Z,6.10
2022-08-19T06:20:54.040Z,5.53
2022-08-19T06:22:51.323Z,6.07
2022-08-19T06:24:54.592Z,6.15
2022-08-19T06:27:00.793Z,6.60
2022-08-19T06:29:07.271Z,5.70
2022-08-19T06:31:09.193Z,6.40
2022-08-19T06:33:10.831Z,6.13
2022-08-19T06:35:13.561Z,6.43
2022-08-19T06:37:15.166Z,6.03
2022-08-19T06:39:20.495Z,6.05
2022-08-19T06:41:22.039Z,4.93
2022-08-19T06:43:23.533Z,5.68
2022-08-19T06:45:34.455Z,5.13
2022-08-19T06:47:37.313Z,5.38
2022-08-19T06:49:39.429Z,5.30
2022-08-19T06:51:48.273Z,5.47
2022-08-19T06:53:52.871Z,5.60
2022-08-19T06:56:00.841Z,5.28
2022-08-19T06:58:04.700Z,5.90
2022-08-19T07:00:13.034Z,5.13
2022-08-19T07:02:14.732Z,4.72
2022-08-19T07:04:19.264Z,4.53
2022-08-19T07:08:43.918Z,4.82
2022-08-19T07:10:46.456Z,4.78
2022-08-19T07:12:50.014Z,5.13
2022-08-19T07:14:51.640Z,4.80
2022-08-19T07:16:56.641Z,4.53
2022-08-19T07:18:59.085Z,4.57
2022-08-19T07:21:30.385Z,4.82
2022-08-19T07:23:32.023Z,4.78
2022-08-19T07:25:33.541Z,4.53
2022-08-19T07:27:35.590Z,5.00
2022-08-19T07:29:37.588Z,4.38
2022-08-19T07:31:39.625Z,4.93
2022-08-19T07:33:44.247Z,4.65
2022-08-19T07:35:45.785Z,4.03
2022-08-19T07:37:47.435Z,3.65
2022-08-19T07:39:49.313Z,2.20
2022-08-19T07:41:51.597Z,2.58
2022-08-19T07:43:54.012Z,2.67
2022-08-19T07:45:59.649Z,2.75
2022-08-19T07:48:02.042Z,3.17
2022-08-19T07:50:07.836Z,3.30
2022-08-19T07:52:10.739Z,4.03
2022-08-19T07:54:12.639Z,3.17
2022-08-19T07:56:15.503Z,3.83
2022-08-19T07:58:20.557Z,3.95
2022-08-19T08:00:24.390Z,4.03
2022-08-19T08:02:26.171Z,3.78
2022-08-19T08:04:47.213Z,4.55
2022-08-19T08:07:07.096Z,4.55
2022-08-19T08:09:12.202Z,4.47
2022-08-19T08:11:15.479Z,4.30
2022-08-19T08:13:17.457Z,4.57
2022-08-19T08:15:19.396Z,4.43
2022-08-19T08:17:48.564Z,4.65
2022-08-19T08:19:46.441Z,4.85
2022-08-19T08:21:49.480Z,4.43
2022-08-19T08:23:55.653Z,4.47
2022-08-19T08:25:59.482Z,4.20
2022-08-19T08:28:01.179Z,5.18
2022-08-19T08:30:03.874Z,4.18
2022-08-19T08:32:14.023Z,4.18
2022-08-19T08:34:16.303Z,5.07
2022-08-19T08:36:18.465Z,4.07
2022-08-19T08:38:19.960Z,4.13
2022-08-19T08:40:28.568Z,4.45
2022-08-19T08:44:37.628Z,3.83
2022-08-19T08:46:46.791Z,3.80
2022-08-19T08:48:57.477Z,3.28
2022-08-19T08:51:02.537Z,3.15
2022-08-19T08:53:09.468Z,2.90
2022-08-19T08:55:14.769Z,3.08
2022-08-19T08:57:28.877Z,2.72
2022-08-19T08:59:39.655Z,2.72
2022-08-19T09:01:41.473Z,2.10
2022-08-19T09:03:46.296Z,2.80
2022-08-19T09:06:04.822Z,2.75
2022-08-19T09:08:29.930Z,2.95
2022-08-19T09:10:44.710Z,2.70
2022-08-19T09:13:01.511Z,2.10
2022-08-19T09:15:08.497Z,2.03
2022-08-19T09:17:10.636Z,2.95
2022-08-19T09:19:12.225Z,1.70
2022-08-19T09:21:15.202Z,1.88
2022-08-19T09:23:16.775Z,1.98
2022-08-19T09:25:26.729Z,2.22
2022-08-19T09:27:42.859Z,2.20
2022-08-19T09:29:54.745Z,1.90
2022-08-19T09:31:56.448Z,1.90
2022-08-19T09:33:58.186Z,1.73
2022-08-19T09:36:21.743Z,1.60
2022-08-19T09:38:31.012Z,1.63
2022-08-19T09:40:37.785Z,1.70
2022-08-19T09:42:50.342Z,1.60
2022-08-19T09:44:52.516Z,1.73
2022-08-19T09:46:54.055Z,1.30
2022-08-19T09:48:59.382Z,1.67
2022-08-19T09:51:11.970Z,1.50
2022-08-19T09:53:13.585Z,1.30
2022-08-19T09:55:16.958Z,1.52
2022-08-19T09:57:19.608Z,1.50
2022-08-19T09:59:21.425Z,1.60
2022-08-19T10:01:26.063Z,1.30
2022-08-19T10:03:30.203Z,1.02
2022-08-19T10:05:49.891Z,1.10
2022-08-19T10:07:51.818Z,1.20
2022-08-19T10:09:53.424Z,1.23
2022-08-19T10:11:55.189Z,1.25
2022-08-19T10:13:57.352Z,1.30
2022-08-19T10:16:08.644Z,1.60
2022-08-19T10:18:12.136Z,1.52
2022-08-19T10:20:13.760Z,1.90
2022-08-19T10:22:16.157Z,1.20
2022-08-19T10:24:17.740Z,1.33
2022-08-19T10:26:23.688Z,1.52
2022-08-19T10:28:28.069Z,1.80
2022-08-19T10:30:31.943Z,1.40
2022-08-19T10:32:34.622Z,1.30
2022-08-19T10:34:37.967Z,1.65
2022-08-19T10:36:56.039Z,1.20
2022-08-19T10:39:02.562Z,1.30
2022-08-19T10:41:20.148Z,1.40
2022-08-19T10:43:21.705Z,1.35
2022-08-19T10:45:26.203Z,1.00
2022-08-19T10:47:31.751Z,0.85
2022-08-19T10:49:53.403Z,0.80
2022-08-19T10:52:18.978Z,0.85
2022-08-19T10:54:31.429Z,0.68
2022-08-19T10:56:53.592Z,0.73
2022-08-19T10:58:55.219Z,0.60
2022-08-19T11:00:58.910Z,0.55
2022-08-19T11:03:00.541Z,0.60
2022-08-19T11:05:12.323Z,0.50
2022-08-19T11:07:14.390Z,0.60
2022-08-19T11:09:20.063Z,0.50
2022-08-19T11:11:22.469Z,0.93
2022-08-19T11:13:24.392Z,0.60
2022-08-19T11:15:26.020Z,0.63
2022-08-19T11:17:27.916Z,0.40
2022-08-19T11:19:29.493Z,0.50
2022-08-19T11:21:37.997Z,0.50
2022-08-19T11:23:39.621Z,1.17
2022-08-19T11:25:41.314Z,0.55
2022-08-19T11:27:44.160Z,0.38
2022-08-19T11:29:45.713Z,0.40
2022-08-19T11:31:49.462Z,0.73
2022-08-19T11:33:54.654Z,0.45
2022-08-19T11:36:00.082Z,0.40
2022-08-19T11:38:02.360Z,0.60
2022-08-19T11:40:05.829Z,0.60
2022-08-19T11:42:28.136Z,0.70
2022-08-19T11:44:31.250Z,0.85
2022-08-19T11:46:32.832Z,0.63
2022-08-19T11:48:35.808Z,0.73
2022-08-19T11:50:37.319Z,0.40
2022-08-19T11:52:38.841Z,0.47
2022-08-19T11:54:40.344Z,0.60
2022-08-19T11:56:42.519Z,0.65
2022-08-19T11:58:44.562Z,0.50
2022-08-19T12:00:46.213Z,0.43
2022-08-19T12:02:47.727Z,0.50
2022-08-19T12:04:49.396Z,0.40
2022-08-19T12:06:51.140Z,0.30
2022-08-19T12:08:53.117Z,0.30
2022-08-19T12:10:54.608Z,0.20
2022-08-19T12:12:58.843Z,0.10
2022-08-19T12:15:00.677Z,0.30
2022-08-19T12:17:03.173Z,0.40
2022-08-19T12:19:06.066Z,0.30
2022-08-19T12:21:07.620Z,0.25
2022-08-19T12:23:10.614Z,0.20
2022-08-19T12:25:12.761Z,0.30
2022-08-19T12:27:14.402Z,0.30
2022-08-19T12:29:30.267Z,0.28
2022-08-19T12:31:32.792Z,0.20
2022-08-19T12:33:34.424Z,0.22
2022-08-19T12:35:36.247Z,0.38
2022-08-19T12:37:38.236Z,0.35
2022-08-19T12:39:43.040Z,0.30
2022-08-19T12:41:54.266Z,0.50
2022-08-19T12:43:56.715Z,0.30
2022-08-19T12:45:58.592Z,0.30
2022-08-19T12:48:00.126Z,0.20
2022-08-19T12:50:06.480Z,0.35
2022-08-19T12:52:09.657Z,0.20
2022-08-19T12:54:11.799Z,0.40
2022-08-19T12:56:15.688Z,0.32
2022-08-19T12:58:18.038Z,0.20
2022-08-19T13:00:22.490Z,0.20
2022-08-19T13:02:23.982Z,0.20
2022-08-19T13:04:25.523Z,0.40
2022-08-19T13:06:27.581Z,0.20
2022-08-19T13:08:29.059Z,0.30
2022-08-19T13:10:36.617Z,0.28
2022-08-19T13:12:38.679Z,0.30
2022-08-19T13:14:41.923Z,1.20
2022-08-19T13:16:44.087Z,0.30
2022-08-19T13:18:48.346Z,0.30
2022-08-19T13:20:53.017Z,0.45
2022-08-19T13:22:55.732Z,0.30
2022-08-19T13:24:57.253Z,0.40
2022-08-19T13:26:59.775Z,0.20
2022-08-19T13:29:19.763Z,0.22
2022-08-19T13:31:42.772Z,0.40
2022-08-19T13:33:44.321Z,0.52
2022-08-19T13:35:47.943Z,0.50
2022-08-19T13:37:49.539Z,0.30
2022-08-19T13:39:51.126Z,0.30
2022-08-19T13:41:52.753Z,0.40
2022-08-19T13:43:55.180Z,0.45
2022-08-19T13:45:57.599Z,0.25
2022-08-19T13:47:59.955Z,0.40
2022-08-19T13:50:05.351Z,0.30
2022-08-19T13:52:06.921Z,0.60
2022-08-19T13:54:09.659Z,0.30
2022-08-19T13:56:24.154Z,0.40
2022-08-19T13:58:27.442Z,0.40
2022-08-19T14:00:31.919Z,0.40
2022-08-19T14:02:33.442Z,0.30
2022-08-19T14:04:38.393Z,0.50
2022-08-19T14:06:39.886Z,0.40
2022-08-19T14:08:46.057Z,0.35
2022-08-19T14:10:48.176Z,0.30
2022-08-19T14:12:50.205Z,0.40
2022-08-19T14:14:51.697Z,0.38
2022-08-19T14:16:53.186Z,0.45
2022-08-19T14:18:54.718Z,0.50
2022-08-19T14:20:57.227Z,0.40
2022-08-19T14:23:00.519Z,0.55
2022-08-19T14:25:02.164Z,0.47
2022-08-19T14:27:04.333Z,0.40
2022-08-19T14:29:06.539Z,0.50
2022-08-19T14:31:09.109Z,0.93
2022-08-19T14:33:10.586Z,0.50
2022-08-19T14:35:13.777Z,0.60
2022-08-19T14:37:15.902Z,0.80
2022-08-19T14:39:18.192Z,0.40
2022-08-19T14:41:24.514Z,0.55
2022-08-19T14:43:25.997Z,0.50
2022-08-19T14:45:29.455Z,0.52
2022-08-19T14:47:30.944Z,0.60
2022-08-19T14:49:41.158Z,0.50
2022-08-19T14:51:46.530Z,0.55
2022-08-19T14:53:50.841Z,0.80
2022-08-19T14:55:52.468Z,0.60
2022-08-19T14:57:54.018Z,1.02
2022-08-19T14:59:58.008Z,0.60
2022-08-19T15:02:00.701Z,0.60
2022-08-19T15:04:22.163Z,0.50
2022-08-19T15:06:25.833Z,0.60
2022-08-19T15:08:29.628Z,0.60
2022-08-19T15:10:31.653Z,0.57
2022-08-19T15:12:34.958Z,0.40
2022-08-19T15:14:38.630Z,0.60
2022-08-19T15:16:41.828Z,0.70
2022-08-19T15:18:45.585Z,0.68
2022-08-19T15:20:48.624Z,0.82
2022-08-19T15:22:52.612Z,0.60
2022-08-19T15:24:55.890Z,0.60
2022-08-19T15:26:58.354Z,1.00
2022-08-19T15:29:01.364Z,1.02
2022-08-19T15:31:04.073Z,0.57
2022-08-19T15:33:06.198Z,1.08
2022-08-19T15:35:08.429Z,0.80
2022-08-19T15:37:10.074Z,0.65
2022-08-19T15:39:11.669Z,0.70
2022-08-19T15:41:23.956Z,0.55
2022-08-19T15:43:25.538Z,0.57
2022-08-19T15:45:32.590Z,0.57
2022-08-19T15:47:35.385Z,0.45
2022-08-19T15:49:37.237Z,0.57
2022-08-19T15:51:41.828Z,0.65
2022-08-19T15:53:43.550Z,0.75
2022-08-19T15:55:46.152Z,0.55
2022-08-19T15:58:06.177Z,0.50
2022-08-19T16:00:28.291Z,0.70
2022-08-19T16:02:48.682Z,0.60
2022-08-19T16:05:13.587Z,0.77
2022-08-19T16:07:15.145Z,0.73
2022-08-19T16:09:29.114Z,1.08
2022-08-19T16:11:39.471Z,1.00
2022-08-19T16:13:41.738Z,0.73
2022-08-19T16:15:43.989Z,0.70
2022-08-19T16:17:45.527Z,0.57
2022-08-19T16:19:58.093Z,0.75
2022-08-19T16:21:59.622Z,0.68
2022-08-19T16:24:05.206Z,0.63
2022-08-19T16:26:06.768Z,0.63
2022-08-19T16:28:09.620Z,0.60
2022-08-19T16:30:11.661Z,0.60
2022-08-19T16:32:13.237Z,0.77
2022-08-19T16:34:14.765Z,0.80
2022-08-19T16:36:16.640Z,0.60
2022-08-19T16:38:19.714Z,0.47
2022-08-19T16:40:22.875Z,0.50
2022-08-19T16:42:24.435Z,0.70
2022-08-19T16:44:29.836Z,0.73
2022-08-19T16:46:31.575Z,0.50
2022-08-19T16:48:34.955Z,0.70
2022-08-19T16:50:49.072Z,0.60
2022-08-19T16:52:50.941Z,0.65
2022-08-19T16:54:52.878Z,0.77
2022-08-19T16:56:56.092Z,0.70
2022-08-19T16:58:59.761Z,0.55
2022-08-19T17:01:04.435Z,0.60
2022-08-19T17:03:14.615Z,0.85
2022-08-19T17:05:16.987Z,1.40
2022-08-19T17:07:19.568Z,0.68
2022-08-19T17:09:26.073Z,0.77
2022-08-19T17:11:31.160Z,0.63
2022-08-19T17:13:32.683Z,3.20
2022-08-19T17:15:34.856Z,1.77
2022-08-19T17:17:37.241Z,1.38
2022-08-19T17:19:41.774Z,2.40
2022-08-19T17:21:43.286Z,2.30
2022-08-19T17:23:44.786Z,1.42
2022-08-19T17:25:46.523Z,0.77
2022-08-19T17:27:48.094Z,0.70
2022-08-19T17:29:49.626Z,0.50
2022-08-19T17:31:51.307Z,0.75
2022-08-19T17:33:52.924Z,0.68
2022-08-19T17:35:56.674Z,0.88
2022-08-19T17:38:03.019Z,5.07
2022-08-19T17:40:07.024Z,2.58
2022-08-19T17:42:09.844Z,3.58
2022-08-19T17:44:11.329Z,2.30
2022-08-19T17:46:20.477Z,2.33
2022-08-19T17:48:24.023Z,1.10
2022-08-19T17:50:25.792Z,2.30
2022-08-19T17:52:27.294Z,1.50
2022-08-19T17:54:33.729Z,1.02
2022-08-19T17:56:35.575Z,0.85
2022-08-19T17:58:38.482Z,0.93
2022-08-19T18:00:53.717Z,0.90
2022-08-19T18:02:58.234Z,0.80
2022-08-19T18:04:59.718Z,1.02
2022-08-19T18:07:04.135Z,0.88
2022-08-19T18:09:06.629Z,1.38
2022-08-19T18:11:08.970Z,0.93
2022-08-19T18:13:17.666Z,0.68
2022-08-19T18:15:21.329Z,0.65
2022-08-19T18:17:23.422Z,0.80
2022-08-19T18:19:25.980Z,0.68
2022-08-19T18:21:35.708Z,1.00
2022-08-19T18:23:43.780Z,1.00
2022-08-19T18:25:47.482Z,1.20
2022-08-19T18:27:49.082Z,1.00
2022-08-19T18:29:50.765Z,0.85
2022-08-19T18:31:56.557Z,0.88
2022-08-19T18:33:58.810Z,1.20
2022-08-19T18:36:01.701Z,1.25
2022-08-19T18:38:26.285Z,1.13
2022-08-19T18:40:48.339Z,0.85
2022-08-19T18:43:08.459Z,0.70
2022-08-19T18:45:30.335Z,0.80
2022-08-19T18:47:50.632Z,0.88
2022-08-19T18:49:52.292Z,0.93
2022-08-19T18:51:56.539Z,1.00
2022-08-19T18:53:59.593Z,1.20
2022-08-19T18:56:02.489Z,0.98
2022-08-19T18:58:03.994Z,1.00
2022-08-19T19:00:07.586Z,1.08
2022-08-19T19:02:11.874Z,0.95
2022-08-19T19:04:13.525Z,0.70
2022-08-19T19:06:25.671Z,1.00
2022-08-19T19:08:27.614Z,1.10
2022-08-19T19:10:29.202Z,1.42
2022-08-19T19:12:30.868Z,1.92
2022-08-19T19:14:49.169Z,1.27
2022-08-19T19:16:51.936Z,1.30
2022-08-19T19:18:53.506Z,1.10
2022-08-19T19:20:56.190Z,1.08
2022-08-19T19:22:58.415Z,1.20
2022-08-19T19:25:02.521Z,0.93
2022-08-19T19:27:06.877Z,0.82
2022-08-19T19:29:08.436Z,1.20
2022-08-19T19:31:13.927Z,1.10
2022-08-19T19:33:15.511Z,1.02
2022-08-19T19:35:17.145Z,1.17
2022-08-19T19:37:19.552Z,1.15
2022-08-19T19:39:44.814Z,0.93
2022-08-19T19:41:42.772Z,0.70
2022-08-19T19:43:44.539Z,0.90
2022-08-19T19:45:46.542Z,0.95
2022-08-19T19:47:50.155Z,1.05
2022-08-19T19:50:13.371Z,0.70
2022-08-19T19:52:14.106Z,0.73
2022-08-19T19:54:15.690Z,0.90
2022-08-19T19:56:17.369Z,1.30
2022-08-19T19:58:19.231Z,1.15
2022-08-19T20:00:30.158Z,0.90
2022-08-19T20:02:31.734Z,0.60
2022-08-19T20:04:33.257Z,1.05
2022-08-19T20:06:36.148Z,0.93
2022-08-19T20:08:56.435Z,1.00
2022-08-19T20:11:02.354Z,1.02
2022-08-19T20:13:04.824Z,1.73
2022-08-19T20:15:08.113Z,1.63
2022-08-19T20:17:09.699Z,1.45
2022-08-19T20:19:13.342Z,1.02
2022-08-19T20:21:14.875Z,1.10
2022-08-19T20:23:18.397Z,1.27
2022-08-19T20:25:22.222Z,1.27
2022-08-19T20:27:24.222Z,1.73
2022-08-19T20:29:38.996Z,1.45
2022-08-19T20:31:44.332Z,1.70
2022-08-19T20:34:00.989Z,1.40
2022-08-19T20:36:02.841Z,1.38
2022-08-19T20:38:06.473Z,1.80
2022-08-19T20:40:10.110Z,1.75
2022-08-19T20:42:11.684Z,1.38
2022-08-19T20:44:13.179Z,1.67
2022-08-19T20:46:15.017Z,1.30
2022-08-19T20:48:16.592Z,2.45
2022-08-19T20:50:18.347Z,2.97
2022-08-19T20:52:20.111Z,1.67
2022-08-19T20:54:21.713Z,1.60
2022-08-19T20:56:23.286Z,1.60
2022-08-19T20:58:25.634Z,1.65
2022-08-19T21:00:29.330Z,1.10
2022-08-19T21:02:30.825Z,1.77
2022-08-19T21:04:33.045Z,1.58
2022-08-19T21:06:34.762Z,1.00
2022-08-19T21:08:37.446Z,1.27
2022-08-19T21:10:42.389Z,1.23
2022-08-19T21:12:44.452Z,1.20
2022-08-19T21:14:47.116Z,1.30
2022-08-19T21:16:50.412Z,1.25
2022-08-19T21:18:51.922Z,1.60
2022-08-19T21:20:55.187Z,1.65
2022-08-19T21:22:56.697Z,1.55
2022-08-19T21:24:58.237Z,1.60
2022-08-19T21:27:00.457Z,1.63
2022-08-19T21:29:01.971Z,1.50
2022-08-19T21:31:06.207Z,1.80
2022-08-19T21:33:07.758Z,1.58
2022-08-19T21:35:10.022Z,1.63
2022-08-19T21:37:18.947Z,1.60
2022-08-19T21:39:26.918Z,1.27
2022-08-19T21:41:28.455Z,1.80
2022-08-19T21:43:30.187Z,1.30
2022-08-19T21:45:31.800Z,1.40
2022-08-19T21:47:33.413Z,1.60
2022-08-19T21:49:35.128Z,1.45
2022-08-19T21:51:36.661Z,1.30
2022-08-19T21:53:38.732Z,1.35
2022-08-19T21:55:40.615Z,1.50
2022-08-19T21:57:42.665Z,1.27
2022-08-19T21:59:44.406Z,1.55
2022-08-19T22:01:50.461Z,1.30
2022-08-19T22:03:55.599Z,1.67
2022-08-19T22:05:58.612Z,1.20
2022-08-19T22:08:01.567Z,1.55
2022-08-19T22:10:06.305Z,7.13
2022-08-19T22:12:11.197Z,4.63
2022-08-19T22:14:12.751Z,1.75
2022-08-19T22:16:15.358Z,1.27
2022-08-19T22:18:17.881Z,1.52
2022-08-19T22:20:23.012Z,1.67
2022-08-19T22:22:27.990Z,1.65
2022-08-19T22:24:29.502Z,1.65
2022-08-19T22:26:31.823Z,2.08
2022-08-19T22:28:33.333Z,1.55
2022-08-19T22:30:36.211Z,2.40
2022-08-19T22:32:38.900Z,1.60
2022-08-19T22:34:41.205Z,1.75
2022-08-19T22:36:42.736Z,1.90
2022-08-19T22:38:44.329Z,1.95
2022-08-19T22:40:48.530Z,2.08
2022-08-19T22:43:10.184Z,2.28
2022-08-19T22:45:15.516Z,2.78
2022-08-19T22:47:18.029Z,2.63
2022-08-19T22:49:19.596Z,2.28
2022-08-19T22:51:39.652Z,2.70
2022-08-19T22:53:43.597Z,2.75
2022-08-19T22:55:45.104Z,2.60
2022-08-19T22:57:46.582Z,2.15
2022-08-19T22:59:50.179Z,2.08
2022-08-19T23:01:51.675Z,2.67
2022-08-19T23:03:53.570Z,2.42
2022-08-19T23:05:56.204Z,2.25
2022-08-19T23:07:58.578Z,2.35
2022-08-19T23:10:00.310Z,3.10
2022-08-19T23:12:01.813Z,2.30
2022-08-19T23:14:05.585Z,2.45
2022-08-19T23:16:07.504Z,2.05
2022-08-19T23:18:09.022Z,2.65
2022-08-19T23:20:14.446Z,2.45
2022-08-19T23:22:17.817Z,2.30
2022-08-19T23:24:19.431Z,2.10
2022-08-19T23:26:21.337Z,2.20
2022-08-19T23:28:42.175Z,2.30
2022-08-19T23:30:48.657Z,2.28
2022-08-19T23:32:50.141Z,2.50
2022-08-19T23:34:52.512Z,2.90
2022-08-19T23:36:54.052Z,2.50
2022-08-19T23:38:55.601Z,2.97
2022-08-19T23:41:00.602Z,2.97
2022-08-19T23:43:04.036Z,3.03
2022-08-19T23:45:09.995Z,2.88
2022-08-19T23:47:12.336Z,3.35
2022-08-19T23:49:14.992Z,2.95
2022-08-19T23:51:17.484Z,3.25
2022-08-19T23:53:19.480Z,3.38
2022-08-19T23:55:24.919Z,3.40
2022-08-19T23:57:26.415Z,2.97
2022-08-19T23:59:27.893Z,2.97
